sensor_id;sensor_type;location;lat;lon;timestamp;pressure;altitude;pressure_sealevel;temperature
28905;BMP280;60848;53.884;11.446;2023-03-14T00:01:07;98557.97;;;12.46
28905;BMP280;60848;53.884;11.446;2023-03-14T00:03:35;98578.22;;;12.45
28905;BMP280;60848;53.884;11.446;2023-03-14T00:06:06;98575.28;;;12.43
28905;BMP280;60848;53.884;11.446;2023-03-14T00:08:37;98580.22;;;12.41
28905;BMP280;60848;53.884;11.446;2023-03-14T00:11:06;98578.13;;;12.36
28905;BMP280;60848;53.884;11.446;2023-03-14T00:13:35;98570.06;;;12.31
28905;BMP280;60848;53.884;11.446;2023-03-14T00:16:05;98560.44;;;12.27
28905;BMP280;60848;53.884;11.446;2023-03-14T00:18:33;98574.06;;;12.22
28905;BMP280;60848;53.884;11.446;2023-03-14T00:21:03;98565.59;;;12.18
28905;BMP280;60848;53.884;11.446;2023-03-14T00:23:34;98561.50;;;12.17
28905;BMP280;60848;53.884;11.446;2023-03-14T00:26:04;98560.88;;;12.13
28905;BMP280;60848;53.884;11.446;2023-03-14T00:28:32;98565.06;;;12.11
28905;BMP280;60848;53.884;11.446;2023-03-14T00:31:02;98569.56;;;12.10
28905;BMP280;60848;53.884;11.446;2023-03-14T00:33:30;98575.94;;;12.09
28905;BMP280;60848;53.884;11.446;2023-03-14T00:36:00;98581.31;;;12.06
28905;BMP280;60848;53.884;11.446;2023-03-14T00:38:29;98581.00;;;12.04
28905;BMP280;60848;53.884;11.446;2023-03-14T00:41:02;98577.31;;;12.01
28905;BMP280;60848;53.884;11.446;2023-03-14T00:43:31;98577.75;;;12.00
28905;BMP280;60848;53.884;11.446;2023-03-14T00:45:59;98579.94;;;12.01
28905;BMP280;60848;53.884;11.446;2023-03-14T00:48:27;98576.50;;;12.04
28905;BMP280;60848;53.884;11.446;2023-03-14T00:50:56;98567.34;;;12.09
28905;BMP280;60848;53.884;11.446;2023-03-14T00:53:24;98577.00;;;12.12
28905;BMP280;60848;53.884;11.446;2023-03-14T00:55:52;98576.13;;;12.15
28905;BMP280;60848;53.884;11.446;2023-03-14T00:58:22;98581.00;;;12.16
28905;BMP280;60848;53.884;11.446;2023-03-14T01:00:50;98568.81;;;12.22
28905;BMP280;60848;53.884;11.446;2023-03-14T01:03:18;98560.22;;;12.22
28905;BMP280;60848;53.884;11.446;2023-03-14T01:05:47;98550.47;;;12.22
28905;BMP280;60848;53.884;11.446;2023-03-14T01:08:15;98527.28;;;12.21
28905;BMP280;60848;53.884;11.446;2023-03-14T01:10:43;98510.16;;;12.20
28905;BMP280;60848;53.884;11.446;2023-03-14T01:13:11;98505.94;;;12.22
28905;BMP280;60848;53.884;11.446;2023-03-14T01:15:41;98513.50;;;12.20
28905;BMP280;60848;53.884;11.446;2023-03-14T01:18:09;98512.03;;;12.19
28905;BMP280;60848;53.884;11.446;2023-03-14T01:20:37;98512.88;;;12.16
28905;BMP280;60848;53.884;11.446;2023-03-14T01:23:06;98529.00;;;12.15
28905;BMP280;60848;53.884;11.446;2023-03-14T01:25:34;98545.59;;;12.12
28905;BMP280;60848;53.884;11.446;2023-03-14T01:28:08;98542.78;;;12.06
28905;BMP280;60848;53.884;11.446;2023-03-14T01:30:36;98536.91;;;12.02
28905;BMP280;60848;53.884;11.446;2023-03-14T01:33:06;98540.34;;;11.99
28905;BMP280;60848;53.884;11.446;2023-03-14T01:35:34;98546.75;;;11.98
28905;BMP280;60848;53.884;11.446;2023-03-14T01:38:02;98538.97;;;11.95
28905;BMP280;60848;53.884;11.446;2023-03-14T01:40:31;98543.59;;;11.91
28905;BMP280;60848;53.884;11.446;2023-03-14T01:43:06;98557.31;;;11.95
28905;BMP280;60848;53.884;11.446;2023-03-14T01:48:53;98551.97;;;11.86
28905;BMP280;60848;53.884;11.446;2023-03-14T01:51:27;98548.75;;;11.82
28905;BMP280;60848;53.884;11.446;2023-03-14T01:53:59;98552.44;;;11.84
28905;BMP280;60848;53.884;11.446;2023-03-14T01:56:30;98538.69;;;11.80
28905;BMP280;60848;53.884;11.446;2023-03-14T01:58:58;98531.97;;;11.79
28905;BMP280;60848;53.884;11.446;2023-03-14T02:01:27;98523.38;;;11.79
28905;BMP280;60848;53.884;11.446;2023-03-14T02:03:59;98520.06;;;11.78
28905;BMP280;60848;53.884;11.446;2023-03-14T02:06:38;98523.69;;;11.81
28905;BMP280;60848;53.884;11.446;2023-03-14T02:09:07;98514.84;;;11.78
28905;BMP280;60848;53.884;11.446;2023-03-14T02:11:36;98503.81;;;11.83
28905;BMP280;60848;53.884;11.446;2023-03-14T02:14:04;98493.03;;;11.81
28905;BMP280;60848;53.884;11.446;2023-03-14T02:16:32;98487.38;;;11.83
28905;BMP280;60848;53.884;11.446;2023-03-14T02:19:06;98496.28;;;11.85
28905;BMP280;60848;53.884;11.446;2023-03-14T02:21:40;98486.03;;;11.78
28905;BMP280;60848;53.884;11.446;2023-03-14T02:24:13;98482.97;;;11.80
28905;BMP280;60848;53.884;11.446;2023-03-14T02:27:02;98492.22;;;11.84
28905;BMP280;60848;53.884;11.446;2023-03-14T02:29:30;98490.31;;;11.85
28905;BMP280;60848;53.884;11.446;2023-03-14T02:31:59;98491.34;;;11.87
28905;BMP280;60848;53.884;11.446;2023-03-14T02:34:28;98492.06;;;11.88
28905;BMP280;60848;53.884;11.446;2023-03-14T02:36:58;98484.22;;;11.88
28905;BMP280;60848;53.884;11.446;2023-03-14T02:39:29;98471.78;;;11.92
28905;BMP280;60848;53.884;11.446;2023-03-14T02:42:01;98456.81;;;11.92
28905;BMP280;60848;53.884;11.446;2023-03-14T02:44:30;98448.38;;;11.97
28905;BMP280;60848;53.884;11.446;2023-03-14T02:46:59;98434.44;;;12.00
28905;BMP280;60848;53.884;11.446;2023-03-14T02:49:27;98461.34;;;12.01
28905;BMP280;60848;53.884;11.446;2023-03-14T02:51:58;98442.94;;;12.04
28905;BMP280;60848;53.884;11.446;2023-03-14T02:54:26;98448.50;;;12.06
28905;BMP280;60848;53.884;11.446;2023-03-14T02:56:54;98446.59;;;12.07
28905;BMP280;60848;53.884;11.446;2023-03-14T02:59:24;98448.78;;;12.08
28905;BMP280;60848;53.884;11.446;2023-03-14T03:01:53;98438.31;;;12.08
28905;BMP280;60848;53.884;11.446;2023-03-14T03:04:22;98443.53;;;12.08
28905;BMP280;60848;53.884;11.446;2023-03-14T03:06:50;98438.31;;;12.08
28905;BMP280;60848;53.884;11.446;2023-03-14T03:09:18;98448.34;;;12.10
28905;BMP280;60848;53.884;11.446;2023-03-14T03:11:46;98451.09;;;12.06
28905;BMP280;60848;53.884;11.446;2023-03-14T03:14:15;98463.75;;;12.08
28905;BMP280;60848;53.884;11.446;2023-03-14T03:16:44;98468.69;;;12.06
28905;BMP280;60848;53.884;11.446;2023-03-14T03:19:13;98470.56;;;12.05
28905;BMP280;60848;53.884;11.446;2023-03-14T03:21:42;98467.97;;;12.05
28905;BMP280;60848;53.884;11.446;2023-03-14T03:24:11;98461.97;;;12.05
28905;BMP280;60848;53.884;11.446;2023-03-14T03:26:39;98464.59;;;12.05
28905;BMP280;60848;53.884;11.446;2023-03-14T03:29:07;98442.19;;;12.04
28905;BMP280;60848;53.884;11.446;2023-03-14T03:31:36;98460.09;;;12.05
28905;BMP280;60848;53.884;11.446;2023-03-14T03:34:06;98449.31;;;12.03
28905;BMP280;60848;53.884;11.446;2023-03-14T03:36:35;98443.34;;;12.03
28905;BMP280;60848;53.884;11.446;2023-03-14T03:39:03;98444.38;;;12.05
28905;BMP280;60848;53.884;11.446;2023-03-14T03:41:31;98436.53;;;12.05
28905;BMP280;60848;53.884;11.446;2023-03-14T03:44:00;98443.66;;;12.05
28905;BMP280;60848;53.884;11.446;2023-03-14T03:46:28;98431.28;;;12.05
28905;BMP280;60848;53.884;11.446;2023-03-14T03:48:57;98425.63;;;12.07
28905;BMP280;60848;53.884;11.446;2023-03-14T03:51:27;98412.31;;;12.01
28905;BMP280;60848;53.884;11.446;2023-03-14T03:53:56;98410.88;;;12.00
28905;BMP280;60848;53.884;11.446;2023-03-14T03:56:24;98406.50;;;11.97
28905;BMP280;60848;53.884;11.446;2023-03-14T03:58:52;98402.81;;;11.95
28905;BMP280;60848;53.884;11.446;2023-03-14T04:01:20;98389.53;;;11.89
28905;BMP280;60848;53.884;11.446;2023-03-14T04:03:49;98383.81;;;11.82
28905;BMP280;60848;53.884;11.446;2023-03-14T04:06:18;98373.47;;;11.78
28905;BMP280;60848;53.884;11.446;2023-03-14T04:08:47;98367.63;;;11.74
28905;BMP280;60848;53.884;11.446;2023-03-14T04:11:17;98356.94;;;11.69
28905;BMP280;60848;53.884;11.446;2023-03-14T04:13:46;98364.47;;;11.67
28905;BMP280;60848;53.884;11.446;2023-03-14T04:16:15;98374.63;;;11.65
28905;BMP280;60848;53.884;11.446;2023-03-14T04:18:44;98366.28;;;11.57
28905;BMP280;60848;53.884;11.446;2023-03-14T04:21:12;98367.44;;;11.56
28905;BMP280;60848;53.884;11.446;2023-03-14T04:23:40;98367.13;;;11.54
28905;BMP280;60848;53.884;11.446;2023-03-14T04:26:10;98371.31;;;11.52
28905;BMP280;60848;53.884;11.446;2023-03-14T04:28:41;98364.59;;;11.51
28905;BMP280;60848;53.884;11.446;2023-03-14T04:31:11;98361.25;;;11.50
28905;BMP280;60848;53.884;11.446;2023-03-14T04:33:40;98363.03;;;11.53
28905;BMP280;60848;53.884;11.446;2023-03-14T04:36:11;98352.91;;;11.55
28905;BMP280;60848;53.884;11.446;2023-03-14T04:38:40;98357.50;;;11.51
28905;BMP280;60848;53.884;11.446;2023-03-14T04:41:09;98350.38;;;11.52
28905;BMP280;60848;53.884;11.446;2023-03-14T04:43:38;98354.44;;;11.53
28905;BMP280;60848;53.884;11.446;2023-03-14T04:46:06;98351.03;;;11.56
28905;BMP280;60848;53.884;11.446;2023-03-14T04:48:34;98338.97;;;11.58
28905;BMP280;60848;53.884;11.446;2023-03-14T04:51:05;98335.06;;;11.63
28905;BMP280;60848;53.884;11.446;2023-03-14T04:53:33;98339.03;;;11.67
28905;BMP280;60848;53.884;11.446;2023-03-14T04:56:03;98342.81;;;11.66
28905;BMP280;60848;53.884;11.446;2023-03-14T04:58:33;98346.06;;;11.70
28905;BMP280;60848;53.884;11.446;2023-03-14T05:01:02;98341.13;;;11.72
28905;BMP280;60848;53.884;11.446;2023-03-14T05:03:31;98336.91;;;11.75
28905;BMP280;60848;53.884;11.446;2023-03-14T05:05:59;98332.41;;;11.75
28905;BMP280;60848;53.884;11.446;2023-03-14T05:08:27;98333.16;;;11.76
28905;BMP280;60848;53.884;11.446;2023-03-14T05:10:56;98334.59;;;11.77
28905;BMP280;60848;53.884;11.446;2023-03-14T05:13:25;98330.97;;;11.74
28905;BMP280;60848;53.884;11.446;2023-03-14T05:16:05;98337.66;;;11.75
28905;BMP280;60848;53.884;11.446;2023-03-14T05:18:33;98338.06;;;11.74
28905;BMP280;60848;53.884;11.446;2023-03-14T05:21:02;98327.00;;;11.70
28905;BMP280;60848;53.884;11.446;2023-03-14T05:23:30;98331.81;;;11.71
28905;BMP280;60848;53.884;11.446;2023-03-14T05:25:59;98332.97;;;11.70
28905;BMP280;60848;53.884;11.446;2023-03-14T05:28:27;98324.81;;;11.68
28905;BMP280;60848;53.884;11.446;2023-03-14T05:30:57;98323.47;;;11.64
28905;BMP280;60848;53.884;11.446;2023-03-14T05:33:25;98332.75;;;11.65
28905;BMP280;60848;53.884;11.446;2023-03-14T05:35:53;98338.44;;;11.63
28905;BMP280;60848;53.884;11.446;2023-03-14T05:38:22;98336.09;;;11.65
28905;BMP280;60848;53.884;11.446;2023-03-14T05:40:50;98341.47;;;11.62
28905;BMP280;60848;53.884;11.446;2023-03-14T05:43:18;98330.25;;;11.61
28905;BMP280;60848;53.884;11.446;2023-03-14T05:45:47;98342.22;;;11.62
28905;BMP280;60848;53.884;11.446;2023-03-14T05:48:16;98331.44;;;11.60
28905;BMP280;60848;53.884;11.446;2023-03-14T05:50:45;98330.13;;;11.65
28905;BMP280;60848;53.884;11.446;2023-03-14T05:53:13;98332.47;;;11.63
28905;BMP280;60848;53.884;11.446;2023-03-14T05:55:42;98336.56;;;11.64
28905;BMP280;60848;53.884;11.446;2023-03-14T05:58:10;98338.72;;;11.65
28905;BMP280;60848;53.884;11.446;2023-03-14T06:00:38;98327.22;;;11.63
28905;BMP280;60848;53.884;11.446;2023-03-14T06:03:07;98329.41;;;11.64
28905;BMP280;60848;53.884;11.446;2023-03-14T06:05:36;98325.63;;;11.65
28905;BMP280;60848;53.884;11.446;2023-03-14T06:08:05;98329.72;;;11.66
28905;BMP280;60848;53.884;11.446;2023-03-14T06:10:34;98325.22;;;11.67
28905;BMP280;60848;53.884;11.446;2023-03-14T06:13:03;98321.13;;;11.66
28905;BMP280;60848;53.884;11.446;2023-03-14T06:15:31;98313.91;;;11.70
28905;BMP280;60848;53.884;11.446;2023-03-14T06:17:59;98305.94;;;11.73
28905;BMP280;60848;53.884;11.446;2023-03-14T06:20:28;98303.47;;;11.79
28905;BMP280;60848;53.884;11.446;2023-03-14T06:22:57;98311.78;;;11.77
28905;BMP280;60848;53.884;11.446;2023-03-14T06:25:26;98309.03;;;11.81
28905;BMP280;60848;53.884;11.446;2023-03-14T06:27:54;98310.50;;;11.82
28905;BMP280;60848;53.884;11.446;2023-03-14T06:30:22;98313.72;;;11.86
28905;BMP280;60848;53.884;11.446;2023-03-14T06:32:51;98314.94;;;11.94
28905;BMP280;60848;53.884;11.446;2023-03-14T06:35:19;98311.38;;;12.00
28905;BMP280;60848;53.884;11.446;2023-03-14T06:37:47;98316.81;;;12.06
28905;BMP280;60848;53.884;11.446;2023-03-14T06:40:17;98314.78;;;12.10
28905;BMP280;60848;53.884;11.446;2023-03-14T06:42:46;98309.44;;;12.13
28905;BMP280;60848;53.884;11.446;2023-03-14T06:45:15;98315.69;;;12.16
28905;BMP280;60848;53.884;11.446;2023-03-14T06:47:43;98313.91;;;12.13
28905;BMP280;60848;53.884;11.446;2023-03-14T06:50:11;98308.38;;;12.11
28905;BMP280;60848;53.884;11.446;2023-03-14T06:52:40;98315.63;;;12.07
28905;BMP280;60848;53.884;11.446;2023-03-14T06:55:13;98329.28;;;12.02
28905;BMP280;60848;53.884;11.446;2023-03-14T06:57:42;98321.09;;;12.00
28905;BMP280;60848;53.884;11.446;2023-03-14T07:00:11;98325.47;;;12.03
28905;BMP280;60848;53.884;11.446;2023-03-14T07:02:40;98331.88;;;12.02
28905;BMP280;60848;53.884;11.446;2023-03-14T07:05:09;98320.50;;;11.96
28905;BMP280;60848;53.884;11.446;2023-03-14T07:07:38;98322.38;;;11.95
28905;BMP280;60848;53.884;11.446;2023-03-14T07:10:07;98329.50;;;11.95
28905;BMP280;60848;53.884;11.446;2023-03-14T07:12:36;98327.63;;;11.95
28905;BMP280;60848;53.884;11.446;2023-03-14T07:15:07;98339.38;;;11.91
28905;BMP280;60848;53.884;11.446;2023-03-14T07:17:45;98345.47;;;11.88
28905;BMP280;60848;53.884;11.446;2023-03-14T07:20:16;98351.84;;;11.87
28905;BMP280;60848;53.884;11.446;2023-03-14T07:22:47;98353.31;;;11.88
28905;BMP280;60848;53.884;11.446;2023-03-14T07:25:16;98356.66;;;11.88
28905;BMP280;60848;53.884;11.446;2023-03-14T07:27:44;98362.94;;;11.91
28905;BMP280;60848;53.884;11.446;2023-03-14T07:30:16;98358.31;;;11.95
28905;BMP280;60848;53.884;11.446;2023-03-14T07:32:44;98359.94;;;12.01
28905;BMP280;60848;53.884;11.446;2023-03-14T07:35:12;98366.69;;;12.02
28905;BMP280;60848;53.884;11.446;2023-03-14T07:37:41;98367.91;;;12.10
28905;BMP280;60848;53.884;11.446;2023-03-14T07:40:10;98370.84;;;12.12
28905;BMP280;60848;53.884;11.446;2023-03-14T07:42:41;98376.97;;;12.18
28905;BMP280;60848;53.884;11.446;2023-03-14T07:45:10;98381.66;;;12.23
28905;BMP280;60848;53.884;11.446;2023-03-14T07:47:40;98374.31;;;12.31
28905;BMP280;60848;53.884;11.446;2023-03-14T07:50:09;98376.50;;;12.42
28905;BMP280;60848;53.884;11.446;2023-03-14T07:52:38;98370.59;;;12.50
28905;BMP280;60848;53.884;11.446;2023-03-14T07:55:07;98377.91;;;12.55
28905;BMP280;60848;53.884;11.446;2023-03-14T07:57:35;98381.03;;;12.63
28905;BMP280;60848;53.884;11.446;2023-03-14T08:00:04;98389.50;;;12.76
28905;BMP280;60848;53.884;11.446;2023-03-14T08:02:34;98383.22;;;12.95
28905;BMP280;60848;53.884;11.446;2023-03-14T08:05:05;98385.63;;;13.29
28905;BMP280;60848;53.884;11.446;2023-03-14T08:07:33;98429.78;;;13.70
28905;BMP280;60848;53.884;11.446;2023-03-14T08:10:02;98394.78;;;13.82
28905;BMP280;60848;53.884;11.446;2023-03-14T08:12:30;98394.63;;;13.76
28905;BMP280;60848;53.884;11.446;2023-03-14T08:14:59;98391.97;;;13.67
28905;BMP280;60848;53.884;11.446;2023-03-14T08:17:27;98394.72;;;13.55
28905;BMP280;60848;53.884;11.446;2023-03-14T08:19:55;98400.53;;;13.41
28905;BMP280;60848;53.884;11.446;2023-03-14T08:22:25;98391.94;;;13.31
28905;BMP280;60848;53.884;11.446;2023-03-14T08:24:53;98387.53;;;13.19
28905;BMP280;60848;53.884;11.446;2023-03-14T08:27:21;98394.78;;;13.15
28905;BMP280;60848;53.884;11.446;2023-03-14T08:29:50;98397.56;;;13.12
28905;BMP280;60848;53.884;11.446;2023-03-14T08:32:18;98393.47;;;13.11
28905;BMP280;60848;53.884;11.446;2023-03-14T08:34:47;98385.28;;;13.09
28905;BMP280;60848;53.884;11.446;2023-03-14T08:37:15;98385.00;;;13.07
28905;BMP280;60848;53.884;11.446;2023-03-14T08:39:54;98386.88;;;13.06
28905;BMP280;60848;53.884;11.446;2023-03-14T08:42:23;98383.13;;;13.07
28905;BMP280;60848;53.884;11.446;2023-03-14T08:44:52;98396.09;;;13.11
28905;BMP280;60848;53.884;11.446;2023-03-14T08:47:20;98393.78;;;13.13
28905;BMP280;60848;53.884;11.446;2023-03-14T08:49:49;98396.66;;;13.15
28905;BMP280;60848;53.884;11.446;2023-03-14T08:52:17;98398.47;;;13.18
28905;BMP280;60848;53.884;11.446;2023-03-14T08:54:46;98392.03;;;13.19
28905;BMP280;60848;53.884;11.446;2023-03-14T08:57:16;98390.59;;;13.27
28905;BMP280;60848;53.884;11.446;2023-03-14T08:59:44;98388.72;;;13.36
28905;BMP280;60848;53.884;11.446;2023-03-14T09:02:12;98416.59;;;13.43
28905;BMP280;60848;53.884;11.446;2023-03-14T09:04:41;98382.03;;;13.44
28905;BMP280;60848;53.884;11.446;2023-03-14T09:07:09;98381.03;;;13.51
28905;BMP280;60848;53.884;11.446;2023-03-14T09:09:38;98377.97;;;13.52
28905;BMP280;60848;53.884;11.446;2023-03-14T09:12:07;98373.59;;;13.58
28905;BMP280;60848;53.884;11.446;2023-03-14T09:14:37;98380.91;;;13.63
28905;BMP280;60848;53.884;11.446;2023-03-14T09:17:05;98381.63;;;13.64
28905;BMP280;60848;53.884;11.446;2023-03-14T09:19:35;98386.44;;;13.65
28905;BMP280;60848;53.884;11.446;2023-03-14T09:22:03;98389.34;;;13.67
28905;BMP280;60848;53.884;11.446;2023-03-14T09:24:32;98391.53;;;13.69
28905;BMP280;60848;53.884;11.446;2023-03-14T09:27:02;98382.38;;;13.64
28905;BMP280;60848;53.884;11.446;2023-03-14T09:29:30;98386.44;;;13.65
28905;BMP280;60848;53.884;11.446;2023-03-14T09:32:00;98387.31;;;13.62
28905;BMP280;60848;53.884;11.446;2023-03-14T09:34:28;98391.41;;;13.63
28905;BMP280;60848;53.884;11.446;2023-03-14T09:36:57;98387.91;;;13.66
28905;BMP280;60848;53.884;11.446;2023-03-14T09:39:25;98389.19;;;13.71
28905;BMP280;60848;53.884;11.446;2023-03-14T09:41:53;98396.97;;;13.74
28905;BMP280;60848;53.884;11.446;2023-03-14T09:44:27;98389.06;;;13.83
28905;BMP280;60848;53.884;11.446;2023-03-14T09:46:58;98396.09;;;13.86
28905;BMP280;60848;53.884;11.446;2023-03-14T09:49:31;98392.41;;;13.84
28905;BMP280;60848;53.884;11.446;2023-03-14T09:52:02;98396.94;;;13.83
28905;BMP280;60848;53.884;11.446;2023-03-14T09:54:35;98391.84;;;13.89
28905;BMP280;60848;53.884;11.446;2023-03-14T09:57:05;98403.81;;;13.99
28905;BMP280;60848;53.884;11.446;2023-03-14T09:59:33;98396.50;;;14.12
28905;BMP280;60848;53.884;11.446;2023-03-14T10:02:13;98399.25;;;14.27
28905;BMP280;60848;53.884;11.446;2023-03-14T10:04:46;98394.88;;;14.33
28905;BMP280;60848;53.884;11.446;2023-03-14T10:07:16;98393.84;;;14.39
28905;BMP280;60848;53.884;11.446;2023-03-14T10:09:48;98395.28;;;14.40
28905;BMP280;60848;53.884;11.446;2023-03-14T10:12:17;98405.81;;;14.40
28905;BMP280;60848;53.884;11.446;2023-03-14T10:14:50;98406.53;;;14.41
28905;BMP280;60848;53.884;11.446;2023-03-14T10:17:20;98398.94;;;14.34
28905;BMP280;60848;53.884;11.446;2023-03-14T10:19:54;98403.34;;;14.28
28905;BMP280;60848;53.884;11.446;2023-03-14T10:22:26;98411.53;;;14.21
28905;BMP280;60848;53.884;11.446;2023-03-14T10:24:56;98403.22;;;14.13
28905;BMP280;60848;53.884;11.446;2023-03-14T10:27:29;98425.13;;;14.10
28905;BMP280;60848;53.884;11.446;2023-03-14T10:29:59;98411.53;;;14.02
28905;BMP280;60848;53.884;11.446;2023-03-14T10:32:32;98415.03;;;13.99
28905;BMP280;60848;53.884;11.446;2023-03-14T10:35:22;98417.69;;;13.99
28905;BMP280;60848;53.884;11.446;2023-03-14T10:37:52;98413.16;;;14.00
28905;BMP280;60848;53.884;11.446;2023-03-14T10:40:27;98409.50;;;13.97
28905;BMP280;60848;53.884;11.446;2023-03-14T10:42:57;98420.31;;;13.99
28905;BMP280;60848;53.884;11.446;2023-03-14T10:45:31;98420.31;;;13.99
28905;BMP280;60848;53.884;11.446;2023-03-14T10:50:36;98419.56;;;13.99
28905;BMP280;60848;53.884;11.446;2023-03-14T10:53:04;98415.91;;;14.06
28905;BMP280;60848;53.884;11.446;2023-03-14T10:55:40;98414.44;;;14.14
28905;BMP280;60848;53.884;11.446;2023-03-14T10:58:23;98421.31;;;14.20
28905;BMP280;60848;53.884;11.446;2023-03-14T11:00:57;98444.09;;;14.23
28905;BMP280;60848;53.884;11.446;2023-03-14T11:03:32;98487.59;;;14.24
28905;BMP280;60848;53.884;11.446;2023-03-14T11:06:05;98534.91;;;14.24
28905;BMP280;60848;53.884;11.446;2023-03-14T11:08:42;98550.53;;;14.01
28905;BMP280;60848;53.884;11.446;2023-03-14T11:11:16;98564.97;;;13.65
28905;BMP280;60848;53.884;11.446;2023-03-14T11:13:52;98599.00;;;13.17
28905;BMP280;60848;53.884;11.446;2023-03-14T11:16:24;98601.22;;;12.63
28905;BMP280;60848;53.884;11.446;2023-03-14T11:19:06;98623.97;;;12.06
28905;BMP280;60848;53.884;11.446;2023-03-14T11:21:43;98640.75;;;11.55
28905;BMP280;60848;53.884;11.446;2023-03-14T11:24:26;98662.38;;;11.15
28905;BMP280;60848;53.884;11.446;2023-03-14T11:26:59;98675.28;;;10.90
28905;BMP280;60848;53.884;11.446;2023-03-14T11:29:35;98670.16;;;10.70
28905;BMP280;60848;53.884;11.446;2023-03-14T11:32:12;98685.59;;;10.48
28905;BMP280;60848;53.884;11.446;2023-03-14T11:34:43;98694.28;;;10.26
28905;BMP280;60848;53.884;11.446;2023-03-14T11:37:17;98696.44;;;10.11
28905;BMP280;60848;53.884;11.446;2023-03-14T11:39:54;98722.44;;;9.99
28905;BMP280;60848;53.884;11.446;2023-03-14T11:42:24;98736.47;;;9.85
28905;BMP280;60848;53.884;11.446;2023-03-14T11:44:52;98744.16;;;9.73
28905;BMP280;60848;53.884;11.446;2023-03-14T11:47:23;98750.81;;;9.54
28905;BMP280;60848;53.884;11.446;2023-03-14T11:49:53;98770.78;;;9.41
28905;BMP280;60848;53.884;11.446;2023-03-14T11:52:27;98767.44;;;9.17
28905;BMP280;60848;53.884;11.446;2023-03-14T11:54:58;98783.25;;;9.03
28905;BMP280;60848;53.884;11.446;2023-03-14T11:57:28;98790.81;;;8.94
28905;BMP280;60848;53.884;11.446;2023-03-14T11:59:59;98788.66;;;8.89
28905;BMP280;60848;53.884;11.446;2023-03-14T12:02:33;98806.66;;;8.80
28905;BMP280;60848;53.884;11.446;2023-03-14T12:05:34;98806.69;;;8.77
28905;BMP280;60848;53.884;11.446;2023-03-14T12:08:22;98817.19;;;8.70
28905;BMP280;60848;53.884;11.446;2023-03-14T12:10:58;98822.50;;;8.63
28905;BMP280;60848;53.884;11.446;2023-03-14T12:13:28;98833.03;;;8.52
28905;BMP280;60848;53.884;11.446;2023-03-14T12:15:58;98839.09;;;8.42
28905;BMP280;60848;53.884;11.446;2023-03-14T12:18:27;98841.00;;;8.38
28905;BMP280;60848;53.884;11.446;2023-03-14T12:20:57;98843.28;;;8.33
28905;BMP280;60848;53.884;11.446;2023-03-14T12:23:28;98857.81;;;8.27
28905;BMP280;60848;53.884;11.446;2023-03-14T12:26:23;98863.84;;;8.24
28905;BMP280;60848;53.884;11.446;2023-03-14T12:29:09;98857.53;;;8.21
28905;BMP280;60848;53.884;11.446;2023-03-14T12:34:28;98875.03;;;8.17
28905;BMP280;60848;53.884;11.446;2023-03-14T12:37:00;98894.75;;;8.15
28905;BMP280;60848;53.884;11.446;2023-03-14T12:39:39;98910.00;;;8.16
28905;BMP280;60848;53.884;11.446;2023-03-14T12:42:12;98902.19;;;8.16
28905;BMP280;60848;53.884;11.446;2023-03-14T12:44:47;98916.69;;;8.14
28905;BMP280;60848;53.884;11.446;2023-03-14T12:47:46;98917.84;;;8.09
28905;BMP280;60848;53.884;11.446;2023-03-14T12:50:20;98906.34;;;8.06
28905;BMP280;60848;53.884;11.446;2023-03-14T12:53:04;98919.72;;;8.05
28905;BMP280;60848;53.884;11.446;2023-03-14T12:55:36;98923.84;;;8.06
28905;BMP280;60848;53.884;11.446;2023-03-14T12:58:10;98922.69;;;8.11
28905;BMP280;60848;53.884;11.446;2023-03-14T13:00:54;98920.03;;;8.14
28905;BMP280;60848;53.884;11.446;2023-03-14T13:03:25;98929.28;;;8.19
28905;BMP280;60848;53.884;11.446;2023-03-14T13:06:03;98939.00;;;8.18
28905;BMP280;60848;53.884;11.446;2023-03-14T13:08:36;98939.72;;;8.15
28905;BMP280;60848;53.884;11.446;2023-03-14T13:11:09;98941.25;;;8.13
28905;BMP280;60848;53.884;11.446;2023-03-14T13:13:42;98956.50;;;8.11
28905;BMP280;60848;53.884;11.446;2023-03-14T13:16:17;98956.16;;;8.05
28905;BMP280;60848;53.884;11.446;2023-03-14T13:18:47;98963.97;;;8.05
28905;BMP280;60848;53.884;11.446;2023-03-14T13:21:17;98970.69;;;8.06
28905;BMP280;60848;53.884;11.446;2023-03-14T13:23:57;98972.16;;;8.07
28905;BMP280;60848;53.884;11.446;2023-03-14T13:26:34;98975.13;;;8.09
28905;BMP280;60848;53.884;11.446;2023-03-14T13:29:09;98977.34;;;8.11
28905;BMP280;60848;53.884;11.446;2023-03-14T13:31:38;98999.66;;;8.12
28905;BMP280;60848;53.884;11.446;2023-03-14T13:34:11;99000.00;;;8.14
28905;BMP280;60848;53.884;11.446;2023-03-14T13:36:39;99012.22;;;8.17
28905;BMP280;60848;53.884;11.446;2023-03-14T13:39:10;99020.41;;;8.19
28905;BMP280;60848;53.884;11.446;2023-03-14T13:41:42;99015.19;;;8.19
28905;BMP280;60848;53.884;11.446;2023-03-14T13:44:15;99016.34;;;8.18
28905;BMP280;60848;53.884;11.446;2023-03-14T13:46:44;99021.91;;;8.16
28905;BMP280;60848;53.884;11.446;2023-03-14T13:49:17;99031.19;;;8.17
28905;BMP280;60848;53.884;11.446;2023-03-14T13:51:48;99040.13;;;8.20
28905;BMP280;60848;53.884;11.446;2023-03-14T13:54:18;99039.00;;;8.21
28905;BMP280;60848;53.884;11.446;2023-03-14T13:56:48;99052.38;;;8.23
28905;BMP280;60848;53.884;11.446;2023-03-14T13:59:28;99065.00;;;8.24
28905;BMP280;60848;53.884;11.446;2023-03-14T14:01:58;99068.38;;;8.21
28905;BMP280;60848;53.884;11.446;2023-03-14T14:04:27;99071.78;;;8.11
28905;BMP280;60848;53.884;11.446;2023-03-14T14:06:57;99082.59;;;8.06
28905;BMP280;60848;53.884;11.446;2023-03-14T14:09:26;99099.31;;;8.05
28905;BMP280;60848;53.884;11.446;2023-03-14T14:11:58;99099.69;;;8.03
28905;BMP280;60848;53.884;11.446;2023-03-14T14:14:43;99103.44;;;7.99
28905;BMP280;60848;53.884;11.446;2023-03-14T14:17:14;99106.78;;;7.99
28905;BMP280;60848;53.884;11.446;2023-03-14T14:19:43;99111.25;;;7.99
28905;BMP280;60848;53.884;11.446;2023-03-14T14:22:12;99116.06;;;8.00
28905;BMP280;60848;53.884;11.446;2023-03-14T14:24:40;99105.66;;;8.00
28905;BMP280;60848;53.884;11.446;2023-03-14T14:27:13;99112.38;;;8.01